Etusivu
METAR-TAF:

METAR-TAF

Lentoasemat :

Benton Harbor, Michigan, Yhdysvallat

Leveyspiiri: 42-07-43N, Pituuspiiri: 086-25-42W, korkeus merenpinnasta: 196 m

Tämänhetkinen sää

Tämä raportti tehtiin 15 minuuttia sitten, kello 20.29 UTC
Tuuli 10 kn pohjoisesta puuskistuen 21 kn:hen, vaihdellen luoteen ja idän/kaakon välillä
Lämpötila -1°C
Kosteus 74%
Ilmanpaine 1014 hPa
Näkyvyys: 2.4 km
Hajanaisia pilviä 1900 ft:n korkeudessa
Hajonneita pilviä 2500 ft:n korkeudessa
Pilvistä 3100 ft:n korkeudessa
heikkoa lumisadetta

METAR: KBEH 262029Z AUTO 01010G21KT 320V110 1 1/2SM -SN SCT019 BKN025 OVC031 M01/M05 A2995 RMK AO2 P0000 T10111050

Aika: 15:44 (20:44 UTC)


TAF: puuttuu

Säähavainnot ja -ennusteet yli 4000 lentoasemalta (METAR- ja TAF-raportit).

Käytössä olevat sääasemat on merkitty karttaan keltaisilla ja punaisilla pisteillä.

Aseta hiiri pisteen päälle nähdäksesi sääaseman nimen.

Klikkaa sitten nähdäksesi säähavainnot ja -ennusteet.

Kartan vaihtaminen: klikkaa mustalla rastilla varustettuja vihreitä pisteitä, niin voit zoomata sisään; viivalla varustettua vihreää pistettä, niin voit zoomata ulos tai vihreitä nuolia, niin pääset viereisille kartoille.


METAR-TAF: